Time;durP1;ratioP1;P1;durP2;ratioP2;P2;SDS_P1;SDS_P2;PMS_P1;PMS_P2;Temp;Humidity;BMP_temperature;BMP_pressure;BME280_temperature;BME280_humidity;BME280_pressure;Samples;Min_cycle;Max_cycle;Signal;HPM_P1;HPM_P2
2023/03/03 00:01:34;;;;;;;36.75;16.92;;;;;;;1.47;100.00;92465.69;6164049;23;20020;-78
2023/03/03 00:03:59;;;;;;;29.38;15.23;;;;;;;1.43;100.00;92466.13;6187395;23;20054;-78
2023/03/03 00:06:25;;;;;;;31.70;16.67;;;;;;;1.43;100.00;92466.13;6188303;23;20017;-77
2023/03/03 00:08:52;;;;;;;30.33;15.35;;;;;;;1.40;100.00;92458.88;6188317;23;20004;-78
2023/03/03 00:11:18;;;;;;;36.58;17.17;;;;;;;1.38;100.00;92460.13;6187789;23;20008;-78
2023/03/03 00:13:50;;;;;;;28.52;15.50;;;;;;;1.38;100.00;92460.91;6189474;23;20336;-78
2023/03/03 00:16:34;;;;;;;30.98;16.35;;;;;;;1.35;100.00;92457.97;6188307;23;20092;-78
2023/03/03 00:19:00;;;;;;;30.35;15.57;;;;;;;1.34;100.00;92459.00;6214400;23;20028;-78
2023/03/03 00:21:30;;;;;;;29.98;15.63;;;;;;;1.31;100.00;92456.91;6163047;23;20028;-77
2023/03/03 00:24:13;;;;;;;33.10;16.23;;;;;;;1.28;100.00;92459.91;6188013;23;20015;-78
2023/03/03 00:26:43;;;;;;;33.78;16.25;;;;;;;1.18;100.00;92442.47;6214508;23;20035;-77
2023/03/03 00:29:26;;;;;;;33.60;16.10;;;;;;;1.24;100.00;92451.88;6188399;23;20135;-78
2023/03/03 00:31:53;;;;;;;30.25;15.63;;;;;;;1.21;100.00;92454.91;6188156;23;20329;-78
2023/03/03 00:34:25;;;;;;;28.10;14.80;;;;;;;1.19;100.00;92452.56;6214852;23;20084;-78
2023/03/03 00:36:55;;;;;;;30.30;15.23;;;;;;;1.20;100.00;92450.75;6187958;23;20012;-77
2023/03/03 00:39:32;;;;;;;35.60;15.85;;;;;;;1.16;100.00;92447.06;6187799;23;20299;-78
2023/03/03 00:41:59;;;;;;;34.67;15.95;;;;;;;1.10;100.00;92440.25;6188303;23;20096;-77
2023/03/03 00:44:36;;;;;;;27.45;14.73;;;;;;;1.10;100.00;92453.13;6188229;23;20011;-78
2023/03/03 00:47:42;;;;;;;35.25;15.82;;;;;;;1.06;100.00;92452.81;6215134;23;20031;-78
2023/03/03 00:50:11;;;;;;;32.70;14.13;;;;;;;1.07;100.00;92456.19;6188481;23;20016;-78
2023/03/03 00:52:45;;;;;;;29.73;15.63;;;;;;;1.04;100.00;92447.88;6192984;23;20017;-78
2023/03/03 00:55:11;;;;;;;28.45;15.48;;;;;;;1.07;100.00;92451.03;6214434;23;20008;-78
2023/03/03 00:57:36;;;;;;;28.77;15.52;;;;;;;1.07;100.00;92443.28;6215836;23;20091;-78
2023/03/03 01:00:05;;;;;;;29.90;16.42;;;;;;;1.06;100.00;92439.13;6212227;23;20414;-78
2023/03/03 01:02:31;;;;;;;31.02;15.80;;;;;;;1.00;100.00;92431.31;6212959;23;20075;-78
2023/03/03 01:04:57;;;;;;;37.78;17.17;;;;;;;1.02;100.00;92437.03;6213474;23;20492;-78
2023/03/03 01:07:22;;;;;;;33.10;16.60;;;;;;;1.00;100.00;92440.84;6212988;23;20005;-78
2023/03/03 01:09:48;;;;;;;39.58;17.83;;;;;;;0.98;100.00;92435.91;6187996;23;20028;-78
2023/03/03 01:12:14;;;;;;;32.72;17.40;;;;;;;0.99;100.00;92445.22;6213417;23;20005;-78
2023/03/03 01:14:41;;;;;;;35.75;16.70;;;;;;;1.00;100.00;92444.19;6213155;23;20115;-78
2023/03/03 01:17:07;;;;;;;34.72;18.13;;;;;;;0.98;100.00;92443.63;6213059;23;20000;-78
2023/03/03 01:19:33;;;;;;;35.70;16.17;;;;;;;0.88;100.00;92424.59;6215604;23;20236;-78
2023/03/03 01:21:59;;;;;;;34.83;16.38;;;;;;;0.95;100.00;92436.38;6214785;23;20012;-78
2023/03/03 01:24:25;;;;;;;37.03;16.63;;;;;;;0.94;100.00;92429.63;6188665;23;20013;-77
2023/03/03 01:26:50;;;;;;;35.88;17.13;;;;;;;0.94;100.00;92426.28;6188169;23;20039;-78
2023/03/03 01:29:16;;;;;;;33.78;16.30;;;;;;;0.93;100.00;92432.47;6213842;23;20012;-78
2023/03/03 01:31:41;;;;;;;33.90;16.33;;;;;;;0.96;100.00;92432.75;6213222;23;20005;-78
2023/03/03 01:34:07;;;;;;;33.80;17.92;;;;;;;0.93;100.00;92427.31;6213370;23;20515;-78
2023/03/03 01:36:32;;;;;;;32.35;16.60;;;;;;;0.91;100.00;92424.16;6213378;23;19997;-77
2023/03/03 01:38:59;;;;;;;34.50;18.30;;;;;;;0.89;100.00;92426.97;6213531;23;20417;-78
2023/03/03 01:41:29;;;;;;;35.85;16.67;;;;;;;0.84;100.00;92429.44;6213749;23;20339;-78
2023/03/03 01:43:55;;;;;;;34.25;17.42;;;;;;;0.84;100.00;92429.44;6188496;23;20027;-78
2023/03/03 01:46:27;;;;;;;39.25;16.60;;;;;;;0.82;100.00;92437.41;6212804;23;20000;-78
2023/03/03 01:49:01;;;;;;;37.70;18.67;;;;;;;0.80;100.00;92429.09;6214432;23;20005;-78
2023/03/03 01:51:35;;;;;;;35.40;17.58;;;;;;;0.79;100.00;92426.78;6213973;23;20057;-78
2023/03/03 01:54:04;;;;;;;33.85;16.88;;;;;;;0.79;100.00;92427.56;6212572;23;20091;-78
2023/03/03 01:56:30;;;;;;;33.88;16.92;;;;;;;0.80;100.00;92428.34;6213257;23;20008;-78
2023/03/03 01:59:12;;;;;;;31.08;16.05;;;;;;;0.78;100.00;92415.66;6188547;23;20028;-78
2023/03/03 02:01:39;;;;;;;35.38;16.40;;;;;;;0.80;100.00;92423.94;6213234;23;20009;-78
2023/03/03 02:04:05;;;;;;;39.42;17.48;;;;;;;0.81;100.00;92414.41;6214099;23;20012;-78
2023/03/03 02:06:40;;;;;;;34.25;17.45;;;;;;;0.80;100.00;92412.88;6213342;23;20017;-78
2023/03/03 02:09:27;;;;;;;35.67;16.60;;;;;;;0.83;100.00;92417.56;6212746;23;20459;-78
2023/03/03 02:11:58;;;;;;;37.05;16.67;;;;;;;0.82;100.00;92410.84;6212471;23;20019;-78
2023/03/03 02:14:24;;;;;;;34.97;16.20;;;;;;;0.82;100.00;92416.00;6213567;23;20018;-78
2023/03/03 02:16:50;;;;;;;37.33;16.77;;;;;;;0.81;100.00;92401.53;6216798;23;20345;-78
2023/03/03 02:19:34;;;;;;;31.15;16.52;;;;;;;0.79;100.00;92395.84;6215271;23;20379;-78
2023/03/03 02:22:03;;;;;;;31.90;16.52;;;;;;;0.79;100.00;92388.13;6215303;23;20012;-78
2023/03/03 02:24:38;;;;;;;35.95;16.90;;;;;;;0.80;100.00;92384.53;6214808;23;20005;-78
2023/03/03 02:27:04;;;;;;;36.72;16.75;;;;;;;0.79;100.00;92388.91;6215148;23;20020;-78
2023/03/03 02:29:30;;;;;;;35.95;17.77;;;;;;;0.80;100.00;92381.94;6165821;23;20452;-78
2023/03/03 02:31:57;;;;;;;31.77;17.10;;;;;;;0.78;100.00;92383.97;6214920;23;20415;-78
2023/03/03 02:34:23;;;;;;;32.55;17.20;;;;;;;0.75;100.00;92376.69;6216552;23;20083;-77
2023/03/03 02:36:49;;;;;;;32.60;16.23;;;;;;;0.74;100.00;92378.47;6215023;23;20016;-78
2023/03/03 02:39:20;;;;;;;35.95;16.67;;;;;;;0.74;100.00;92373.31;6190273;23;20151;-78
2023/03/03 02:41:52;;;;;;;34.35;16.92;;;;;;;0.75;100.00;92374.13;6216318;23;20347;-78
2023/03/03 02:44:21;;;;;;;36.08;18.02;;;;;;;0.74;100.00;92364.81;6190078;23;20016;-78
2023/03/03 02:46:48;;;;;;;39.35;17.33;;;;;;;0.71;100.00;92362.69;6215011;23;20072;-77
2023/03/03 02:49:20;;;;;;;33.78;17.17;;;;;;;0.74;100.00;92362.25;6215036;23;20016;-78
2023/03/03 02:51:46;;;;;;;37.55;16.77;;;;;;;0.73;100.00;92368.41;6215474;23;20019;-77
2023/03/03 02:54:15;;;;;;;30.45;16.02;;;;;;;0.71;100.00;92363.47;6215009;23;20012;-78
2023/03/03 02:56:41;;;;;;;35.17;17.00;;;;;;;0.71;100.00;92357.56;6189346;23;20353;-78
2023/03/03 02:59:06;;;;;;;30.38;14.68;;;;;;;0.70;100.00;92354.19;6214484;23;19996;-77
2023/03/03 03:01:37;;;;;;;35.30;17.20;;;;;;;0.69;100.00;92354.41;6190169;23;20461;-78
2023/03/03 03:04:09;;;;;;;32.42;16.25;;;;;;;0.71;100.00;92354.97;6189859;23;20534;-78
2023/03/03 03:06:36;;;;;;;32.95;16.10;;;;;;;0.69;100.00;92354.41;6213624;23;20008;-78
2023/03/03 03:09:04;;;;;;;31.90;15.95;;;;;;;0.64;100.00;92342.22;6164959;23;20008;-78
2023/03/03 03:11:31;;;;;;;31.92;16.42;;;;;;;0.65;100.00;92353.31;6215116;23;20017;-78
2023/03/03 03:13:56;;;;;;;34.42;16.98;;;;;;;0.65;100.00;92353.31;6189188;23;20008;-78
2023/03/03 03:16:22;;;;;;;33.72;17.90;;;;;;;0.65;100.00;92343.00;6216100;23;20202;-78
2023/03/03 03:18:49;;;;;;;38.85;17.63;;;;;;;0.65;100.00;92348.16;6214448;23;20395;-78
2023/03/03 03:21:15;;;;;;;37.50;18.52;;;;;;;0.64;100.00;92346.59;6214895;23;20024;-78
2023/03/03 03:23:42;;;;;;;36.60;17.55;;;;;;;0.65;100.00;92345.56;6215113;23;20004;-78
2023/03/03 03:26:10;;;;;;;34.13;17.25;;;;;;;0.64;100.00;92339.66;6213962;23;20055;-78
2023/03/03 03:28:36;;;;;;;38.00;17.80;;;;;;;0.62;100.00;92341.66;6215520;23;20391;-78
2023/03/03 03:31:03;;;;;;;35.08;16.55;;;;;;;0.60;100.00;92341.88;6214266;23;20015;-78
2023/03/03 03:33:28;;;;;;;36.40;16.77;;;;;;;0.60;100.00;92339.31;6189299;23;20028;-78
2023/03/03 03:35:56;;;;;;;35.03;16.60;;;;;;;0.61;100.00;92342.69;6214170;23;20012;-78
2023/03/03 03:38:25;;;;;;;38.75;17.23;;;;;;;0.61;100.00;92333.16;6213754;23;20425;-77
2023/03/03 03:40:53;;;;;;;37.05;17.42;;;;;;;0.65;100.00;92335.28;6213922;23;20456;-77
2023/03/03 03:43:18;;;;;;;40.17;17.42;;;;;;;0.64;100.00;92333.72;6215802;23;20000;-78
2023/03/03 03:45:45;;;;;;;38.20;16.50;;;;;;;0.66;100.00;92329.13;6214131;23;20146;-78
2023/03/03 03:48:12;;;;;;;33.85;16.95;;;;;;;0.64;100.00;92329.34;6213415;23;20007;-78
2023/03/03 03:50:38;;;;;;;36.72;18.27;;;;;;;0.60;100.00;92328.22;6215020;23;20020;-78
2023/03/03 03:53:05;;;;;;;32.65;16.08;;;;;;;0.57;100.00;92324.31;6214335;23;20055;-78
2023/03/03 03:55:31;;;;;;;33.60;15.32;;;;;;;0.56;100.00;92322.75;6214333;23;20099;-78
2023/03/03 03:57:58;;;;;;;31.33;15.70;;;;;;;0.58;100.00;92320.72;6188974;23;20009;-78
2023/03/03 04:00:24;;;;;;;33.85;16.88;;;;;;;0.56;100.00;92320.19;6214217;23;20013;-78
2023/03/03 04:02:54;;;;;;;32.67;15.77;;;;;;;0.56;100.00;92320.19;6214969;23;20001;-78
2023/03/03 04:05:20;;;;;;;32.45;14.90;;;;;;;0.61;100.00;92311.78;6189974;23;20095;-78
2023/03/03 04:07:46;;;;;;;31.55;15.02;;;;;;;0.59;100.00;92314.56;6215598;23;20024;-78
2023/03/03 04:10:12;;;;;;;34.65;16.23;;;;;;;0.56;100.00;92315.03;6214656;23;20020;-77
2023/03/03 04:12:38;;;;;;;30.08;15.23;;;;;;;0.51;100.00;92311.56;6189226;23;19995;-78
2023/03/03 04:15:11;;;;;;;31.80;15.15;;;;;;;0.53;100.00;92309.56;6213827;23;20016;-78
2023/03/03 04:17:38;;;;;;;33.38;15.15;;;;;;;0.52;100.00;92308.78;6213649;23;20067;-78
2023/03/03 04:20:06;;;;;;;30.25;15.00;;;;;;;0.53;100.00;92309.56;6213193;23;20006;-78
2023/03/03 04:22:34;;;;;;;27.10;14.55;;;;;;;0.50;100.00;92299.72;6214405;23;20012;-78
2023/03/03 04:25:03;;;;;;;31.88;14.30;;;;;;;0.51;100.00;92306.41;6189314;23;20602;-78
2023/03/03 04:27:35;;;;;;;27.13;13.20;;;;;;;0.48;100.00;92307.66;6215056;23;20016;-78
2023/03/03 04:30:04;;;;;;;32.53;14.82;;;;;;;0.46;100.00;92308.91;6214310;23;20084;-78
2023/03/03 04:32:32;;;;;;;31.48;14.65;;;;;;;0.44;100.00;92301.41;6214259;23;20436;-78
2023/03/03 04:34:58;;;;;;;32.85;15.40;;;;;;;0.43;100.00;92299.84;6214626;23;20016;-77
2023/03/03 04:37:25;;;;;;;31.90;14.80;;;;;;;0.43;100.00;92299.84;6214141;23;20038;-77
2023/03/03 04:39:51;;;;;;;33.53;15.18;;;;;;;0.41;100.00;92305.22;6214569;23;20024;-78
2023/03/03 04:42:16;;;;;;;36.05;16.65;;;;;;;0.42;100.00;92298.25;6189365;23;20005;-78
2023/03/03 04:44:42;;;;;;;32.47;16.33;;;;;;;0.42;100.00;92298.25;6213631;23;20024;-78
2023/03/03 04:47:08;;;;;;;33.80;16.98;;;;;;;0.43;100.00;92292.13;6213621;23;20000;-78
2023/03/03 04:49:35;;;;;;;34.78;16.63;;;;;;;0.44;100.00;92293.66;6163904;23;20012;-77
2023/03/03 04:52:00;;;;;;;33.45;16.13;;;;;;;0.45;100.00;92289.28;6163717;23;20399;-77
2023/03/03 04:54:26;;;;;;;32.65;16.17;;;;;;;0.46;100.00;92288.31;6212891;23;20547;-77
2023/03/03 04:56:52;;;;;;;33.20;16.42;;;;;;;0.45;100.00;92291.88;6212869;23;20040;-78
2023/03/03 04:59:17;;;;;;;29.10;15.25;;;;;;;0.44;100.00;92291.09;6213706;23;20040;-78
2023/03/03 05:01:45;;;;;;;29.67;14.95;;;;;;;0.43;100.00;92288.75;6212469;23;20059;-78
2023/03/03 05:04:11;;;;;;;29.98;15.80;;;;;;;0.39;100.00;92289.19;6213394;23;20356;-78
2023/03/03 05:06:37;;;;;;;27.65;14.15;;;;;;;0.38;100.00;92292.00;6213220;23;20011;-78
2023/03/03 05:09:03;;;;;;;31.90;15.65;;;;;;;0.35;100.00;92288.09;6213175;23;20095;-78
2023/03/03 05:11:29;;;;;;;26.67;13.85;;;;;;;0.33;100.00;92287.53;6213284;23;20009;-78
2023/03/03 05:13:55;;;;;;;35.20;14.23;;;;;;;0.28;100.00;92286.66;6214843;23;20055;-77
2023/03/03 05:16:20;;;;;;;30.75;14.45;;;;;;;0.30;100.00;92285.44;6215944;23;20001;-78
2023/03/03 05:18:47;;;;;;;31.52;14.48;;;;;;;0.30;100.00;92282.84;6215344;23;20013;-78
2023/03/03 05:21:13;;;;;;;27.55;14.07;;;;;;;0.28;100.00;92282.28;6213747;23;20061;-78
2023/03/03 05:23:39;;;;;;;25.05;12.70;;;;;;;0.25;100.00;92282.75;6215210;23;20036;-78
2023/03/03 05:26:04;;;;;;;27.40;13.50;;;;;;;0.23;100.00;92279.63;6188443;23;20325;-77
2023/03/03 05:28:31;;;;;;;23.08;11.45;;;;;;;0.24;100.00;92282.97;6212977;23;20051;-77
2023/03/03 05:30:56;;;;;;;26.90;12.18;;;;;;;0.19;100.00;92291.38;6213118;23;20005;-77
2023/03/03 05:33:22;;;;;;;24.52;11.63;;;;;;;0.16;100.00;92284.13;6212959;23;20020;-78
2023/03/03 05:35:52;;;;;;;25.02;12.00;;;;;;;0.13;100.00;92285.34;6211676;23;20011;-77
2023/03/03 05:38:18;;;;;;;23.20;11.38;;;;;;;0.12;100.00;92288.94;6210797;23;20023;-77
2023/03/03 05:40:44;;;;;;;25.20;11.88;;;;;;;0.13;100.00;92290.50;6212780;23;20433;-77
2023/03/03 05:43:09;;;;;;;22.67;12.10;;;;;;;0.12;100.00;92281.22;6211199;23;20027;-77
2023/03/03 05:45:35;;;;;;;24.42;12.15;;;;;;;0.12;100.00;92291.50;6184646;23;20008;-77
2023/03/03 05:48:02;;;;;;;27.17;13.88;;;;;;;0.12;100.00;92285.59;6211485;23;20013;-77
2023/03/03 05:50:27;;;;;;;30.38;14.43;;;;;;;0.14;100.00;92286.16;6188241;23;20031;-77
2023/03/03 05:52:53;;;;;;;30.05;14.63;;;;;;;0.14;100.00;92281.00;6187690;23;20029;-77
2023/03/03 05:55:18;;;;;;;29.80;14.90;;;;;;;0.16;100.00;92290.06;6212743;23;20018;-77
2023/03/03 05:57:44;;;;;;;30.42;14.02;;;;;;;0.16;100.00;92284.91;6214684;23;20026;-77
2023/03/03 06:00:12;;;;;;;36.78;15.43;;;;;;;0.17;100.00;92289.03;6214069;23;20079;-76
2023/03/03 06:02:38;;;;;;;27.00;14.05;;;;;;;0.18;100.00;92288.03;6214081;23;20020;-77
2023/03/03 06:05:04;;;;;;;31.20;14.90;;;;;;;0.20;100.00;92290.38;6215564;23;20484;-76
2023/03/03 06:07:30;;;;;;;31.13;15.48;;;;;;;0.19;100.00;92289.59;6209989;23;20380;-76
2023/03/03 06:09:55;;;;;;;36.97;16.75;;;;;;;0.24;100.00;92290.69;6184941;23;20001;-76
2023/03/03 06:12:22;;;;;;;31.15;15.25;;;;;;;0.28;100.00;92291.81;6210721;23;20405;-77
2023/03/03 06:14:47;;;;;;;31.60;15.65;;;;;;;0.30;100.00;92288.00;6212500;23;20039;-77
2023/03/03 06:17:13;;;;;;;35.10;16.67;;;;;;;0.34;100.00;92290.91;6210583;23;20024;-76
2023/03/03 06:19:40;;;;;;;30.15;15.80;;;;;;;0.37;100.00;92288.66;6214561;23;20005;-80
2023/03/03 06:22:07;;;;;;;32.67;15.35;;;;;;;0.43;100.00;92296.47;6217060;23;20096;-78
2023/03/03 06:24:34;;;;;;;30.10;14.73;;;;;;;0.49;100.00;92295.56;6213988;23;20169;-77
2023/03/03 06:27:00;;;;;;;27.90;14.45;;;;;;;0.56;100.00;92293.63;6213536;23;20078;-78
2023/03/03 06:29:27;;;;;;;30.80;14.43;;;;;;;0.65;100.00;92292.25;6217510;23;20385;-78
2023/03/03 06:31:53;;;;;;;28.95;14.20;;;;;;;0.84;100.00;92295.44;6191435;23;20034;-78
2023/03/03 06:34:18;;;;;;;32.38;15.90;;;;;;;1.00;100.00;92293.91;6210767;23;20005;-76
2023/03/03 06:36:45;;;;;;;30.92;15.93;;;;;;;1.21;100.00;92300.94;6211303;23;20095;-76
2023/03/03 06:39:11;;;;;;;34.67;17.05;;;;;;;1.39;100.00;92307.69;6185411;23;20004;-80
2023/03/03 06:41:37;;;;;;;34.17;15.60;;;;;;;1.57;100.00;92304.09;6185413;23;20017;-76
2023/03/03 06:44:02;;;;;;;35.53;16.10;;;;;;;1.73;100.00;92296.59;6209734;23;20009;-76
2023/03/03 06:46:28;;;;;;;32.03;15.32;;;;;;;1.82;100.00;92303.72;6208806;23;20453;-76
2023/03/03 06:48:54;;;;;;;30.55;15.60;;;;;;;2.01;100.00;92304.22;6209223;23;20001;-76
2023/03/03 06:51:32;;;;;;;27.45;15.27;;;;;;;2.45;100.00;92304.25;6210342;23;20013;-76
2023/03/03 06:54:01;;;;;;;28.73;14.70;;;;;;;2.80;100.00;92310.06;6211746;23;20019;-76
2023/03/03 06:56:29;;;;;;;29.83;15.32;;;;;;;3.15;100.00;92308.84;6183850;23;20004;-76
2023/03/03 06:58:59;;;;;;;28.77;15.15;;;;;;;3.69;100.00;92306.19;6210249;23;20048;-77
2023/03/03 07:01:26;;;;;;;31.35;14.57;;;;;;;4.45;100.00;92308.47;6210413;23;20019;-76
2023/03/03 07:03:52;;;;;;;28.65;14.98;;;;;;;5.33;100.00;92318.06;6212719;23;20433;-75
2023/03/03 07:06:26;;;;;;;26.35;14.95;;;;;;;6.38;100.00;92308.97;6210941;23;20068;-77
2023/03/03 07:08:54;;;;;;;24.13;13.65;;;;;;;7.35;100.00;92315.59;6186855;23;20011;-76
2023/03/03 07:11:22;;;;;;;26.58;14.57;;;;;;;8.16;100.00;92315.25;6184314;23;20004;-77
2023/03/03 07:13:53;;;;;;;25.48;13.73;;;;;;;9.28;100.00;92315.88;6186472;23;20008;-77
2023/03/03 07:16:24;;;;;;;20.85;12.80;;;;;;;10.10;87.24;92317.28;6212188;23;20449;-76
2023/03/03 07:18:50;;;;;;;25.00;14.00;;;;;;;10.87;83.10;92318.56;6210195;23;20032;-77
2023/03/03 07:21:19;;;;;;;20.63;13.00;;;;;;;10.90;77.00;92316.16;6209189;23;20433;-77
2023/03/03 07:23:53;;;;;;;23.85;14.52;;;;;;;11.13;74.02;92318.84;6186094;23;20078;-77
2023/03/03 07:26:24;;;;;;;21.50;13.82;;;;;;;11.98;72.79;92321.75;6209426;23;20112;-78
2023/03/03 07:29:14;;;;;;;18.80;12.65;;;;;;;12.29;66.52;92319.19;6211325;23;20008;-77
2023/03/03 07:31:41;;;;;;;20.00;13.63;;;;;;;12.49;65.48;92323.16;6186178;23;20697;-77
2023/03/03 07:34:22;;;;;;;21.90;14.20;;;;;;;12.90;62.04;92322.09;6183301;23;20067;-78
2023/03/03 07:36:49;;;;;;;22.08;13.90;;;;;;;13.72;59.75;92314.56;6185352;23;20095;-78
2023/03/03 07:39:36;;;;;;;21.65;13.32;;;;;;;13.99;59.86;92312.72;6183354;23;20062;-77
2023/03/03 07:42:08;;;;;;;21.73;14.13;;;;;;;13.70;59.10;92317.50;6211910;23;20523;-76
2023/03/03 07:44:36;;;;;;;24.30;14.50;;;;;;;12.50;61.34;92324.72;6211033;23;20063;-75
2023/03/03 07:47:17;;;;;;;21.27;14.30;;;;;;;11.92;65.57;92320.34;6211388;23;20665;-78
2023/03/03 07:49:42;;;;;;;22.73;14.45;;;;;;;10.36;67.74;92320.28;6214202;23;20058;-78
2023/03/03 07:52:38;;;;;;;22.60;13.60;;;;;;;11.32;68.24;92321.34;6212690;23;20330;-76
2023/03/03 07:55:28;;;;;;;23.50;14.18;;;;;;;11.89;62.77;92316.47;6185891;23;20020;-76
2023/03/03 07:57:58;;;;;;;24.88;13.77;;;;;;;12.72;62.41;92316.00;6212591;23;20016;-76
2023/03/03 08:00:28;;;;;;;24.67;14.73;;;;;;;11.61;64.69;92318.38;6213622;23;20075;-76
2023/03/03 08:02:56;;;;;;;25.02;14.50;;;;;;;11.57;64.39;92309.53;6187390;23;20089;-76
2023/03/03 08:05:30;;;;;;;24.80;15.20;;;;;;;10.48;67.39;92319.81;6214105;23;20000;-76
2023/03/03 08:08:08;;;;;;;26.65;14.95;;;;;;;10.50;69.14;92309.84;6213672;23;20444;-76
2023/03/03 08:10:47;;;;;;;21.02;13.07;;;;;;;11.51;65.17;92315.97;6161245;23;20020;-76
2023/03/03 08:13:17;;;;;;;24.45;13.38;;;;;;;11.43;64.07;92320.84;6213574;23;20008;-76
2023/03/03 08:15:45;;;;;;;27.23;13.80;;;;;;;11.53;63.62;92314.63;6213492;23;20483;-76
2023/03/03 08:18:22;;;;;;;20.02;13.23;;;;;;;11.23;65.16;92316.78;6213252;23;20009;-76
2023/03/03 08:20:55;;;;;;;25.63;13.55;;;;;;;11.27;64.14;92313.59;6186702;23;20016;-76
2023/03/03 08:23:21;;;;;;;;;;;;;;;11.53;62.52;92316.44;6213897;23;20016;-76
2023/03/03 08:25:48;;;;;;;20.55;12.75;;;;;;;11.14;63.36;92312.53;6162147;23;19908;-76
2023/03/03 08:28:14;;;;;;;21.90;13.60;;;;;;;10.61;64.88;92317.22;6187000;23;20031;-76
2023/03/03 08:30:41;;;;;;;26.48;13.93;;;;;;;10.93;66.93;92305.09;6213426;23;20384;-76
2023/03/03 08:33:06;;;;;;;24.02;13.98;;;;;;;10.96;64.27;92314.97;6186845;23;20008;-76
2023/03/03 08:35:32;;;;;;;22.50;13.27;;;;;;;11.04;63.81;92311.69;6213377;23;20008;-76
2023/03/03 08:37:58;;;;;;;19.02;11.35;;;;;;;11.04;61.86;92314.28;6186740;23;20040;-76
2023/03/03 08:40:23;;;;;;;23.60;13.52;;;;;;;10.62;64.68;92305.66;6213261;23;20295;-76
2023/03/03 08:42:49;;;;;;;25.05;13.10;;;;;;;10.65;64.29;92311.38;6211569;23;20472;-76
2023/03/03 08:45:15;;;;;;;22.05;12.95;;;;;;;10.59;65.40;92308.88;6186598;23;20009;-76
2023/03/03 08:47:42;;;;;;;25.08;12.38;;;;;;;10.77;64.88;92302.00;6186755;23;20012;-76
2023/03/03 08:50:08;;;;;;;21.92;11.40;;;;;;;11.14;62.29;92302.06;6213285;23;20076;-76
2023/03/03 08:52:34;;;;;;;19.05;10.77;;;;;;;10.84;60.99;92310.22;6194132;23;20063;-76
2023/03/03 08:54:59;;;;;;;18.10;11.20;;;;;;;11.08;61.71;92313.69;6211750;23;20012;-76
2023/03/03 08:57:26;;;;;;;16.48;9.43;;;;;;;10.89;61.78;92311.97;6213297;23;20009;-76
2023/03/03 08:59:52;;;;;;;18.73;12.05;;;;;;;11.19;60.02;92307.19;6213144;23;20039;-76
2023/03/03 09:02:17;;;;;;;21.77;11.45;;;;;;;10.96;59.41;92312.34;6213010;23;20167;-76
2023/03/03 09:04:43;;;;;;;11.95;5.22;;;;;;;11.12;56.44;92318.06;6211643;23;20429;-77
2023/03/03 09:07:08;;;;;;;21.08;12.07;;;;;;;10.65;60.04;92316.63;6187048;23;20023;-76
2023/03/03 09:09:36;;;;;;;16.85;8.80;;;;;;;10.93;60.30;92312.19;6212877;23;20056;-76
2023/03/03 09:12:47;;;;;;;21.20;10.70;;;;;;;11.17;58.27;92322.44;6213313;23;20012;-75
2023/03/03 09:15:21;;;;;;;16.13;9.23;;;;;;;11.18;58.81;92318.75;6211891;23;20356;-76
2023/03/03 09:17:47;;;;;;;12.57;7.38;;;;;;;10.71;61.05;92326.72;6212922;23;20463;-76
2023/03/03 09:20:22;;;;;;;19.67;10.82;;;;;;;10.49;60.51;92323.97;6211687;23;20005;-76
2023/03/03 09:22:49;;;;;;;16.92;10.55;;;;;;;10.62;59.13;92337.06;6213100;23;20024;-76
2023/03/03 09:25:26;;;;;;;14.95;9.57;;;;;;;10.59;58.38;92324.56;6214078;23;20004;-76
2023/03/03 09:27:53;;;;;;;14.82;7.25;;;;;;;10.89;56.51;92327.69;6213980;23;20483;-76
2023/03/03 09:30:25;;;;;;;15.57;8.57;;;;;;;10.92;54.78;92332.34;6215830;23;20000;-76
2023/03/03 09:32:52;;;;;;;13.65;8.27;;;;;;;10.83;53.74;92332.25;6215436;23;20094;-76
2023/03/03 09:35:36;;;;;;;16.40;8.77;;;;;;;10.86;53.80;92332.75;6215412;23;20527;-76
2023/03/03 09:38:15;;;;;;;14.15;8.15;;;;;;;11.51;53.33;92331.72;6214002;23;20016;-76
2023/03/03 09:40:52;;;;;;;10.85;5.78;;;;;;;11.33;53.25;92336.00;6213645;23;20008;-76
2023/03/03 09:43:29;;;;;;;15.23;8.60;;;;;;;10.41;54.28;92280.94;6215499;23;20502;-76
2023/03/03 09:46:24;;;;;;;8.63;5.38;;;;;;;10.67;53.38;92345.91;6214953;23;20023;-76
2023/03/03 09:49:25;;;;;;;11.30;7.43;;;;;;;10.65;55.29;92348.03;6213402;23;20059;-76
2023/03/03 09:52:12;;;;;;;17.40;10.13;;;;;;;9.96;58.18;92343.38;6159183;23;20458;-76
2023/03/03 09:54:45;;;;;;;14.38;9.15;;;;;;;9.60;56.90;92336.06;6213674;23;20463;-76
2023/03/03 09:57:38;;;;;;;18.75;10.65;;;;;;;10.14;57.61;92339.19;6213561;23;20352;-75
2023/03/03 10:00:44;;;;;;;20.10;10.50;;;;;;;10.30;59.53;92339.75;6213017;23;20005;-76
2023/03/03 10:03:18;;;;;;;16.60;9.02;;;;;;;10.51;57.56;92346.16;6213322;23;20564;-76
2023/03/03 10:05:57;;;;;;;17.38;9.20;;;;;;;10.81;57.38;92337.00;6213312;23;20341;-76
2023/03/03 10:08:39;;;;;;;19.70;9.35;;;;;;;10.65;57.51;92342.78;6214631;23;20080;-76
2023/03/03 10:11:34;;;;;;;15.00;8.13;;;;;;;10.42;58.31;92347.91;6187694;23;20035;-76
2023/03/03 10:14:23;;;;;;;17.58;10.65;;;;;;;10.38;59.67;92346.91;6213154;23;20017;-76
2023/03/03 10:17:04;;;;;;;17.48;9.05;;;;;;;10.19;60.42;92345.09;6213216;23;20348;-75
2023/03/03 10:19:55;;;;;;;18.00;10.93;;;;;;;10.24;60.14;92349.47;6213048;23;20012;-75
2023/03/03 10:22:29;;;;;;;19.40;8.93;;;;;;;10.34;60.64;92349.34;6214702;23;20361;-76
2023/03/03 10:25:00;;;;;;;17.38;9.95;;;;;;;10.35;59.70;92350.13;6214760;23;20016;-76
2023/03/03 10:27:29;;;;;;;12.10;7.53;;;;;;;10.71;59.95;92349.50;6215055;23;20009;-76
2023/03/03 10:29:55;;;;;;;23.33;12.48;;;;;;;10.72;58.70;92351.06;6214879;23;20004;-76
2023/03/03 10:32:30;;;;;;;11.88;5.90;;;;;;;10.20;61.01;92348.50;6214764;23;20054;-75
2023/03/03 10:35:17;;;;;;;22.15;13.32;;;;;;;10.66;58.61;92346.97;6188287;23;20037;-76
2023/03/03 10:38:21;;;;;;;22.67;13.30;;;;;;;10.65;59.42;92353.25;6215421;23;20078;-76
2023/03/03 10:41:28;;;;;;;20.55;12.00;;;;;;;11.16;57.88;92347.09;6214503;23;20098;-76
2023/03/03 10:44:18;;;;;;;21.40;12.23;;;;;;;11.54;57.78;92346.84;6214532;23;20406;-75
2023/03/03 10:46:56;;;;;;;18.38;8.88;;;;;;;11.42;57.38;92342.88;6213213;23;20281;-76
2023/03/03 10:49:38;;;;;;;23.30;13.43;;;;;;;11.11;57.61;92353.19;6213229;23;20009;-76
2023/03/03 10:52:30;;;;;;;22.52;13.23;;;;;;;10.80;59.36;92348.53;6214260;23;20021;-75
2023/03/03 10:55:17;;;;;;;11.55;6.43;;;;;;;11.08;59.52;92355.63;6213081;23;20012;-76
2023/03/03 10:58:07;;;;;;;19.42;11.27;;;;;;;11.23;59.53;92355.31;6214817;23;20019;-75
2023/03/03 11:00:56;;;;;;;27.38;11.98;;;;;;;11.12;59.12;92353.97;6188345;23;20024;-76
2023/03/03 11:03:35;;;;;;;20.20;12.32;;;;;;;10.99;57.67;92348.47;6214295;23;20040;-76
2023/03/03 11:06:20;;;;;;;18.65;10.05;;;;;;;10.89;58.31;92348.63;6215633;23;20067;-76
2023/03/03 11:09:36;;;;;;;11.43;6.43;;;;;;;10.81;56.75;92351.94;6188981;23;20004;-76
2023/03/03 11:12:33;;;;;;;9.35;5.28;;;;;;;11.11;58.51;92344.56;6189579;23;20290;-75
2023/03/03 11:15:21;;;;;;;17.00;8.48;;;;;;;10.67;58.61;92351.13;6186919;23;20482;-76
2023/03/03 11:18:06;;;;;;;18.02;10.82;;;;;;;10.82;57.60;92345.63;6214710;23;20008;-76
2023/03/03 11:20:45;;;;;;;19.02;9.65;;;;;;;10.91;57.54;92346.50;6214539;23;20009;-77
2023/03/03 11:23:31;;;;;;;15.18;8.75;;;;;;;10.71;57.52;92346.88;6214298;23;20020;-76
2023/03/03 11:26:21;;;;;;;13.45;8.30;;;;;;;10.93;56.62;92344.38;6187979;23;20012;-76
2023/03/03 11:29:07;;;;;;;17.63;7.90;;;;;;;10.69;56.15;92343.78;6187694;23;20448;-76
2023/03/03 11:32:01;;;;;;;13.40;7.50;;;;;;;10.58;56.80;92343.19;6187657;23;20051;-76
2023/03/03 11:34:47;;;;;;;21.00;9.70;;;;;;;10.95;57.14;92334.38;6188271;23;20008;-76
2023/03/03 11:37:21;;;;;;;15.88;8.93;;;;;;;10.93;56.40;92333.91;6187760;23;20016;-78
2023/03/03 11:39:49;;;;;;;13.90;7.20;;;;;;;11.15;55.54;92335.06;6188000;23;20091;-76